createdAt,value
2018-03-26T00:01:24.771Z,2.40
2018-03-26T00:03:53.096Z,2.50
2018-03-26T00:06:23.244Z,2.30
2018-03-26T00:08:51.573Z,2.30
2018-03-26T00:11:19.903Z,2.20
2018-03-26T00:13:49.593Z,2.00
2018-03-26T00:16:18.699Z,2.00
2018-03-26T00:18:47.054Z,2.00
2018-03-26T00:21:16.050Z,2.10
2018-03-26T00:23:44.374Z,2.00
2018-03-26T00:26:12.714Z,1.90
2018-03-26T00:28:43.167Z,1.60
2018-03-26T00:31:11.504Z,1.60
2018-03-26T00:33:39.845Z,1.60
2018-03-26T00:36:09.245Z,1.70
2018-03-26T00:38:37.576Z,1.80
2018-03-26T00:41:07.483Z,1.80
2018-03-26T00:43:37.170Z,1.90
2018-03-26T00:46:09.430Z,1.90
2018-03-26T00:48:38.430Z,1.90
2018-03-26T00:51:06.785Z,1.90
2018-03-26T00:53:44.502Z,1.80
2018-03-26T00:56:13.598Z,1.60
2018-03-26T00:58:41.947Z,1.60
2018-03-26T01:01:11.394Z,1.50
2018-03-26T01:03:39.772Z,1.40
2018-03-26T01:06:08.140Z,1.40
2018-03-26T01:08:36.977Z,1.50
2018-03-26T01:11:06.319Z,1.50
2018-03-26T01:13:34.671Z,1.50
2018-03-26T01:16:03.225Z,1.50
2018-03-26T01:18:32.536Z,1.40
2018-03-26T01:21:00.902Z,1.40
2018-03-26T01:23:30.143Z,1.40
2018-03-26T01:25:58.502Z,1.30
2018-03-26T01:28:26.853Z,1.20
2018-03-26T01:30:56.824Z,1.30
2018-03-26T01:33:25.176Z,1.30
2018-03-26T01:35:53.551Z,1.40
2018-03-26T01:38:23.383Z,1.40
2018-03-26T01:40:52.483Z,1.40
2018-03-26T01:43:22.405Z,1.40
2018-03-26T01:45:52.021Z,1.40
2018-03-26T01:48:20.372Z,1.40
2018-03-26T01:50:48.703Z,1.40
2018-03-26T01:53:17.885Z,1.50
2018-03-26T01:55:46.281Z,1.60
2018-03-26T01:58:15.303Z,1.70
2018-03-26T02:00:45.320Z,1.60
2018-03-26T02:03:13.670Z,1.60
2018-03-26T02:05:42.781Z,1.70
2018-03-26T02:08:11.794Z,1.60
2018-03-26T02:10:40.171Z,1.60
2018-03-26T02:13:10.768Z,1.60
2018-03-26T02:15:40.501Z,1.70
2018-03-26T02:18:08.868Z,1.70
2018-03-26T02:20:37.983Z,1.50
2018-03-26T02:23:07.178Z,1.40
2018-03-26T02:25:36.285Z,1.50
2018-03-26T02:28:04.630Z,1.40
2018-03-26T02:30:34.964Z,1.60
2018-03-26T02:33:03.296Z,1.60
2018-03-26T02:35:31.648Z,1.70
2018-03-26T02:38:01.472Z,1.70
2018-03-26T02:40:30.305Z,1.70
2018-03-26T02:42:58.642Z,1.80
2018-03-26T02:45:30.625Z,1.80
2018-03-26T02:47:58.983Z,1.70
2018-03-26T02:50:27.293Z,1.70
2018-03-26T02:52:56.585Z,1.80
2018-03-26T02:55:24.935Z,1.80
2018-03-26T02:57:53.306Z,1.70
2018-03-26T03:00:21.736Z,1.80
2018-03-26T03:02:50.073Z,1.80
2018-03-26T03:05:18.418Z,1.90
2018-03-26T03:07:48.067Z,2.00
2018-03-26T03:10:16.406Z,2.00
2018-03-26T03:12:44.724Z,2.10
2018-03-26T03:15:15.788Z,2.10
2018-03-26T03:17:44.897Z,2.00
2018-03-26T03:20:13.214Z,2.00
2018-03-26T03:22:42.609Z,1.80
2018-03-26T03:25:10.944Z,1.80
2018-03-26T03:27:39.276Z,1.80
2018-03-26T03:30:08.608Z,1.80
2018-03-26T03:32:36.949Z,1.90
2018-03-26T03:35:06.034Z,1.90
2018-03-26T03:37:35.872Z,1.90
2018-03-26T03:40:04.980Z,2.10
2018-03-26T03:42:33.331Z,2.10
2018-03-26T03:45:03.294Z,2.40
2018-03-26T03:47:33.123Z,2.40
2018-03-26T03:50:01.459Z,2.30
2018-03-26T03:52:30.904Z,2.20
2018-03-26T03:54:59.229Z,2.20
2018-03-26T03:57:27.601Z,2.10
2018-03-26T03:59:57.228Z,2.20
2018-03-26T04:02:25.572Z,2.20
2018-03-26T04:04:53.982Z,2.10
2018-03-26T04:07:25.076Z,2.20
2018-03-26T04:09:53.679Z,2.20
2018-03-26T04:12:22.320Z,2.20
2018-03-26T04:14:52.444Z,2.10
2018-03-26T04:17:20.924Z,2.10
2018-03-26T04:19:50.294Z,2.20
2018-03-26T04:22:18.783Z,2.20
2018-03-26T04:24:47.980Z,2.30
2018-03-26T04:27:16.315Z,2.30
2018-03-26T04:29:44.665Z,2.40
2018-03-26T04:32:13.997Z,2.50
2018-03-26T04:34:43.088Z,2.40
2018-03-26T04:37:12.213Z,2.40
2018-03-26T04:39:41.676Z,2.30
2018-03-26T04:42:10.046Z,2.40
2018-03-26T04:44:38.391Z,2.50
2018-03-26T04:47:08.840Z,2.60
2018-03-26T04:49:38.383Z,2.60
2018-03-26T04:52:06.718Z,2.80
2018-03-26T04:54:35.899Z,2.90
2018-03-26T04:57:05.051Z,3.00
2018-03-26T04:59:33.442Z,3.00
2018-03-26T05:02:03.631Z,2.70
2018-03-26T05:04:32.013Z,2.70
2018-03-26T05:07:01.224Z,2.80
2018-03-26T05:09:30.761Z,3.00
2018-03-26T05:11:59.319Z,3.00
2018-03-26T05:14:27.774Z,3.00
2018-03-26T05:16:57.029Z,2.90
2018-03-26T05:19:25.405Z,2.90
2018-03-26T05:21:54.560Z,2.80
2018-03-26T05:24:24.821Z,2.70
2018-03-26T05:26:53.865Z,2.70
2018-03-26T05:29:22.220Z,2.70
2018-03-26T05:31:51.597Z,2.70
2018-03-26T05:34:19.953Z,2.70
2018-03-26T05:36:53.062Z,2.80
2018-03-26T05:39:21.430Z,2.80
2018-03-26T05:41:50.558Z,3.30
2018-03-26T05:44:20.001Z,3.30
2018-03-26T05:46:48.368Z,3.50
2018-03-26T05:49:16.743Z,3.60
2018-03-26T05:51:48.288Z,3.70
2018-03-26T05:54:16.661Z,3.70
2018-03-26T05:56:44.991Z,3.60
2018-03-26T05:59:14.645Z,3.50
2018-03-26T06:01:43.770Z,3.80
2018-03-26T06:04:12.097Z,3.80
2018-03-26T06:06:41.352Z,3.90
2018-03-26T06:09:09.690Z,3.90
2018-03-26T06:11:38.031Z,4.00
2018-03-26T06:14:07.730Z,4.00
2018-03-26T06:16:48.020Z,4.10
2018-03-26T06:19:17.611Z,4.30
2018-03-26T06:21:45.958Z,4.30
2018-03-26T06:24:14.319Z,4.30
2018-03-26T06:26:43.865Z,4.40
2018-03-26T06:29:12.198Z,4.50
2018-03-26T06:31:41.430Z,4.60
2018-03-26T06:34:11.549Z,4.80
2018-03-26T06:39:50.466Z,5.00
2018-03-26T06:42:18.755Z,5.10
2018-03-26T06:44:47.089Z,5.20
2018-03-26T06:47:16.223Z,5.30
2018-03-26T06:49:45.331Z,5.40
2018-03-26T06:52:14.732Z,5.40
2018-03-26T06:54:44.797Z,5.50
2018-03-26T06:57:13.069Z,5.50
2018-03-26T06:59:41.381Z,5.60
2018-03-26T07:02:10.696Z,5.60
2018-03-26T07:04:38.995Z,5.70
2018-03-26T07:07:08.082Z,5.90
2018-03-26T07:09:37.695Z,5.90
2018-03-26T07:12:06.033Z,6.00
2018-03-26T07:14:34.370Z,6.10
2018-03-26T07:17:04.264Z,6.30
2018-03-26T07:19:32.572Z,6.30
2018-03-26T07:22:01.815Z,6.40
2018-03-26T07:24:31.157Z,6.40
2018-03-26T07:26:59.468Z,6.50
2018-03-26T07:29:28.561Z,6.80
2018-03-26T07:31:58.695Z,6.80
2018-03-26T07:34:26.991Z,6.80
2018-03-26T07:36:55.273Z,6.90
2018-03-26T07:39:24.831Z,7.10
2018-03-26T07:41:53.137Z,7.20
2018-03-26T07:44:22.227Z,7.50
2018-03-26T07:46:51.342Z,7.50
2018-03-26T07:49:19.648Z,7.60
2018-03-26T07:51:47.949Z,7.90
2018-03-26T07:54:18.740Z,8.10
2018-03-26T07:56:47.795Z,8.30
2018-03-26T07:59:16.069Z,8.30
2018-03-26T08:01:44.800Z,8.50
2018-03-26T08:04:13.118Z,9.10
2018-03-26T08:06:41.424Z,9.10
2018-03-26T08:09:10.962Z,8.60
2018-03-26T08:11:39.296Z,8.40
2018-03-26T08:14:07.586Z,8.40
2018-03-26T08:16:36.471Z,8.40
2018-03-26T08:19:04.744Z,8.90
2018-03-26T08:21:33.047Z,9.60
2018-03-26T08:24:02.160Z,9.80
2018-03-26T08:26:30.447Z,9.70
2018-03-26T08:28:58.745Z,9.70
2018-03-26T08:31:28.350Z,9.90
2018-03-26T08:33:56.663Z,9.80
2018-03-26T08:36:25.738Z,10.20
2018-03-26T08:38:55.022Z,10.10
2018-03-26T08:41:23.369Z,10.60
2018-03-26T08:43:51.685Z,10.70
2018-03-26T08:46:20.957Z,10.80
2018-03-26T08:48:49.255Z,10.80
2018-03-26T08:51:17.697Z,10.50
2018-03-26T08:53:46.948Z,10.50
2018-03-26T08:56:17.003Z,10.40
2018-03-26T08:58:45.303Z,10.30
2018-03-26T09:01:14.912Z,10.20
2018-03-26T09:03:43.220Z,10.20
2018-03-26T09:06:11.695Z,10.20
2018-03-26T09:08:40.838Z,10.40
2018-03-26T09:11:09.165Z,10.50
2018-03-26T09:13:37.494Z,10.70
2018-03-26T09:16:07.244Z,10.80
2018-03-26T09:18:35.539Z,10.90
2018-03-26T09:21:04.613Z,11.10
2018-03-26T09:23:34.243Z,11.10
2018-03-26T09:26:02.560Z,11.20
2018-03-26T09:28:30.891Z,11.20
2018-03-26T09:30:59.209Z,11.20
2018-03-26T09:33:28.708Z,11.20
2018-03-26T09:35:57.022Z,11.10
2018-03-26T09:38:25.344Z,10.90
2018-03-26T09:40:54.784Z,11.20
2018-03-26T09:43:23.878Z,12.20
2018-03-26T09:45:52.238Z,12.20
2018-03-26T09:48:21.590Z,12.60
2018-03-26T09:50:50.437Z,13.50
2018-03-26T09:53:19.559Z,13.50
2018-03-26T09:55:48.640Z,13.40
2018-03-26T09:58:18.786Z,13.40
2018-03-26T10:00:48.672Z,13.70
2018-03-26T10:03:16.984Z,13.70
2018-03-26T10:05:47.099Z,14.70
2018-03-26T10:08:15.436Z,14.70
2018-03-26T10:10:43.735Z,14.70
2018-03-26T10:13:13.156Z,14.60
2018-03-26T10:15:41.461Z,14.40
2018-03-26T10:18:10.541Z,13.60
2018-03-26T10:20:39.320Z,13.60
2018-03-26T10:23:07.672Z,13.60
2018-03-26T10:25:35.985Z,13.30
2018-03-26T10:28:05.102Z,12.60
2018-03-26T10:30:35.353Z,13.00
2018-03-26T10:33:03.699Z,13.00
2018-03-26T10:35:32.005Z,13.30
2018-03-26T10:38:02.129Z,13.70
2018-03-26T10:40:31.474Z,13.30
2018-03-26T10:42:59.791Z,13.20
2018-03-26T10:45:29.159Z,12.90
2018-03-26T10:47:57.455Z,12.90
2018-03-26T10:50:25.756Z,12.80
2018-03-26T10:52:55.168Z,12.60
2018-03-26T10:55:23.453Z,12.30
2018-03-26T10:57:51.762Z,12.10
2018-03-26T11:00:22.948Z,11.80
2018-03-26T11:02:51.981Z,10.60
2018-03-26T11:05:21.056Z,10.00
2018-03-26T11:07:50.615Z,9.90
2018-03-26T11:10:19.691Z,9.60
2018-03-26T11:12:47.991Z,9.60
2018-03-26T11:15:18.416Z,9.50
2018-03-26T11:17:46.736Z,9.50
2018-03-26T11:20:15.028Z,9.50
2018-03-26T11:22:44.666Z,9.50
2018-03-26T11:25:12.971Z,9.40
2018-03-26T11:27:42.033Z,9.60
2018-03-26T11:30:11.533Z,9.60
2018-03-26T11:32:39.837Z,9.70
2018-03-26T11:35:08.157Z,9.80
2018-03-26T11:37:38.661Z,10.10
2018-03-26T11:40:06.975Z,10.10
2018-03-26T11:42:35.278Z,10.30
2018-03-26T11:45:04.798Z,10.50
2018-03-26T11:47:33.893Z,11.50
2018-03-26T11:50:02.301Z,11.50
2018-03-26T11:52:31.722Z,12.00
2018-03-26T11:55:00.024Z,12.40
2018-03-26T11:57:29.079Z,12.60
2018-03-26T11:59:58.638Z,12.60
2018-03-26T12:02:29.663Z,13.00
2018-03-26T12:04:58.684Z,13.00
2018-03-26T12:07:27.013Z,13.20
2018-03-26T12:09:55.328Z,13.10
2018-03-26T12:12:25.057Z,12.60
2018-03-26T12:14:54.114Z,11.30
2018-03-26T12:17:23.179Z,10.40
2018-03-26T12:20:04.271Z,10.30
2018-03-26T12:22:32.579Z,9.70
2018-03-26T12:25:16.012Z,9.10
2018-03-26T12:27:56.848Z,8.80
2018-03-26T12:30:27.420Z,8.50
2018-03-26T12:32:55.737Z,8.20
2018-03-26T12:35:36.523Z,7.80
2018-03-26T12:38:04.806Z,7.70
2018-03-26T12:40:45.839Z,7.50
2018-03-26T12:43:14.169Z,7.40
2018-03-26T12:45:55.433Z,7.40
2018-03-26T12:48:23.725Z,7.30
2018-03-26T12:51:03.948Z,7.30
2018-03-26T12:53:33.341Z,7.20
2018-03-26T12:56:02.423Z,7.40
2018-03-26T12:58:52.387Z,7.40
2018-03-26T13:01:33.512Z,7.70
2018-03-26T13:04:01.809Z,7.70
2018-03-26T13:06:32.986Z,7.90
2018-03-26T13:09:01.282Z,8.10
2018-03-26T13:11:29.601Z,8.30
2018-03-26T13:13:59.051Z,8.40
2018-03-26T13:16:27.351Z,8.60
2018-03-26T13:18:56.435Z,9.20
2018-03-26T13:21:25.670Z,9.20
2018-03-26T13:23:54.728Z,9.80
2018-03-26T13:26:23.029Z,9.80
2018-03-26T13:28:52.332Z,9.90
2018-03-26T13:31:20.646Z,9.90
2018-03-26T13:33:48.985Z,9.90
2018-03-26T13:36:18.400Z,10.20
2018-03-26T13:38:47.490Z,10.60
2018-03-26T13:41:15.805Z,10.60
2018-03-26T13:43:45.281Z,10.50
2018-03-26T13:46:13.591Z,10.50
2018-03-26T13:48:42.689Z,10.50
2018-03-26T13:51:12.690Z,10.50
2018-03-26T13:53:41.813Z,9.90
2018-03-26T13:56:10.112Z,9.90
2018-03-26T13:58:39.505Z,8.40
2018-03-26T14:01:07.831Z,7.40
2018-03-26T14:03:36.116Z,6.70
2018-03-26T14:06:04.441Z,6.20
2018-03-26T14:08:46.520Z,6.20
2018-03-26T14:11:29.225Z,6.50
2018-03-26T14:14:10.012Z,6.50
2018-03-26T14:16:50.238Z,6.80
2018-03-26T14:19:19.584Z,6.90
2018-03-26T14:21:47.881Z,7.20
2018-03-26T14:24:16.203Z,7.40
2018-03-26T14:26:45.639Z,7.40
2018-03-26T14:29:14.698Z,7.20
2018-03-26T14:31:43.016Z,7.20
2018-03-26T14:34:13.668Z,6.90
2018-03-26T14:36:41.998Z,6.90
2018-03-26T14:39:10.404Z,6.80
2018-03-26T14:41:39.572Z,6.70
2018-03-26T14:44:07.910Z,6.60
2018-03-26T14:46:36.244Z,6.50
2018-03-26T14:49:05.867Z,6.40
2018-03-26T14:51:34.285Z,6.40
2018-03-26T14:54:03.388Z,6.30
2018-03-26T14:56:32.899Z,6.30
2018-03-26T14:59:01.241Z,6.30
2018-03-26T15:01:29.526Z,6.30
2018-03-26T15:04:01.435Z,6.40
2018-03-26T15:06:29.760Z,6.50
2018-03-26T15:08:58.075Z,6.70
2018-03-26T15:11:30.645Z,6.90
2018-03-26T15:13:59.028Z,7.00
2018-03-26T15:16:27.316Z,7.20
2018-03-26T15:18:56.627Z,7.30
2018-03-26T15:21:24.931Z,7.40
2018-03-26T15:23:53.251Z,7.40
2018-03-26T15:26:22.704Z,7.30
2018-03-26T15:28:51.802Z,7.00
2018-03-26T15:31:20.876Z,7.00
2018-03-26T15:33:50.421Z,7.00
2018-03-26T15:36:19.477Z,6.90
2018-03-26T15:38:47.812Z,6.80
2018-03-26T15:42:01.157Z,6.60
2018-03-26T15:48:11.074Z,6.30
2018-03-26T17:27:00.926Z,5.90
2018-03-26T17:29:29.245Z,4.30
2018-03-26T17:31:57.567Z,4.20
2018-03-26T17:34:26.921Z,4.20
2018-03-26T17:36:56.099Z,4.20
2018-03-26T17:39:24.409Z,4.10
2018-03-26T17:41:53.816Z,4.20
2018-03-26T17:44:22.885Z,4.20
2018-03-26T17:46:51.186Z,4.10
2018-03-26T17:49:21.496Z,4.10
2018-03-26T17:51:49.828Z,4.10
2018-03-26T17:54:18.202Z,4.10
2018-03-26T17:56:48.214Z,4.10
2018-03-26T17:59:16.520Z,4.10
2018-03-26T18:01:44.835Z,4.10
2018-03-26T18:04:14.259Z,4.10
2018-03-26T18:06:43.339Z,4.10
2018-03-26T18:09:11.639Z,4.10
2018-03-26T18:11:40.732Z,4.00
2018-03-26T18:14:10.273Z,4.00
2018-03-26T18:16:38.590Z,4.00
2018-03-26T18:19:06.968Z,4.00
2018-03-26T18:21:36.334Z,4.00
2018-03-26T18:24:05.385Z,3.90
2018-03-26T18:26:35.671Z,3.90
2018-03-26T18:29:04.735Z,3.90
2018-03-26T18:31:33.039Z,3.80
2018-03-26T18:34:02.128Z,3.70
2018-03-26T18:36:31.254Z,3.70
2018-03-26T18:38:59.558Z,3.70
2018-03-26T18:41:27.877Z,3.60
2018-03-26T18:43:56.573Z,3.60
2018-03-26T18:46:24.873Z,3.50
2018-03-26T18:48:53.211Z,3.50
2018-03-26T18:51:22.576Z,3.50
2018-03-26T18:53:50.890Z,3.50
2018-03-26T18:56:19.173Z,3.50
2018-03-26T18:58:47.906Z,3.50
2018-03-26T19:01:16.187Z,3.50
2018-03-26T19:03:45.269Z,3.50
2018-03-26T19:06:14.225Z,3.50
2018-03-26T19:08:43.319Z,3.60
2018-03-26T19:11:11.647Z,3.60
2018-03-26T19:13:40.943Z,3.60
2018-03-26T19:16:09.264Z,3.60
2018-03-26T19:18:38.320Z,3.60
2018-03-26T19:21:06.657Z,3.50
2018-03-26T19:23:36.039Z,3.60
2018-03-26T19:26:04.362Z,3.60
2018-03-26T19:28:34.199Z,3.60
2018-03-26T19:31:02.507Z,3.70
2018-03-26T19:33:35.325Z,3.70
2018-03-26T19:36:03.746Z,3.70
2018-03-26T19:38:32.169Z,3.70
2018-03-26T19:41:01.851Z,3.80
2018-03-26T19:43:31.016Z,3.80
2018-03-26T19:46:00.142Z,3.80
2018-03-26T19:48:29.236Z,3.80
2018-03-26T19:50:57.796Z,3.80
2018-03-26T19:53:27.043Z,3.80
2018-03-26T19:55:55.776Z,3.80
2018-03-26T19:58:24.222Z,3.90
2018-03-26T20:00:52.616Z,3.80
2018-03-26T20:03:22.350Z,3.70
2018-03-26T20:05:51.461Z,3.50
2018-03-26T20:08:20.532Z,3.40
2018-03-26T20:10:49.565Z,3.40
2018-03-26T20:13:18.637Z,3.40
2018-03-26T20:15:46.977Z,3.40
2018-03-26T20:18:16.017Z,3.40
2018-03-26T20:20:45.084Z,3.50
2018-03-26T20:23:13.449Z,3.40
2018-03-26T20:25:43.614Z,3.50
2018-03-26T20:28:11.902Z,3.40
2018-03-26T20:30:41.940Z,3.40
2018-03-26T20:33:12.094Z,3.20
2018-03-26T20:35:40.390Z,3.20
2018-03-26T20:38:08.740Z,3.20
2018-03-26T20:40:37.942Z,3.20
2018-03-26T20:43:06.597Z,3.20
2018-03-26T20:45:34.988Z,3.30
2018-03-26T20:48:05.132Z,3.40
2018-03-26T20:50:38.327Z,3.40
2018-03-26T20:53:07.798Z,3.40
2018-03-26T20:55:36.094Z,3.40
2018-03-26T20:58:04.399Z,3.40
2018-03-26T21:00:34.276Z,3.40
2018-03-26T21:03:03.836Z,3.50
2018-03-26T21:05:32.171Z,3.60
2018-03-26T21:08:00.453Z,3.60
2018-03-26T21:10:29.566Z,3.60
2018-03-26T21:12:58.561Z,3.60
2018-03-26T21:15:26.871Z,3.60
2018-03-26T21:17:56.751Z,3.70
2018-03-26T21:20:25.098Z,3.70
2018-03-26T21:22:53.678Z,3.70
2018-03-26T21:25:22.981Z,3.70
2018-03-26T21:27:52.138Z,3.50
2018-03-26T21:30:24.063Z,3.50
2018-03-26T21:32:54.358Z,3.50
2018-03-26T21:35:25.607Z,3.60
2018-03-26T21:37:54.680Z,3.60
2018-03-26T21:40:23.262Z,3.60
2018-03-26T21:42:53.714Z,3.40
2018-03-26T21:45:22.997Z,3.40
2018-03-26T21:47:51.725Z,3.40
2018-03-26T21:50:21.371Z,3.40
2018-03-26T21:52:51.372Z,3.30
2018-03-26T21:55:19.761Z,3.30
2018-03-26T21:57:48.697Z,3.30
2018-03-26T22:00:17.890Z,3.20
2018-03-26T22:02:46.213Z,3.20
2018-03-26T22:05:15.668Z,3.00
2018-03-26T22:07:43.973Z,2.90
2018-03-26T22:10:12.310Z,2.80
2018-03-26T22:12:41.643Z,2.70
2018-03-26T22:15:10.041Z,2.60
2018-03-26T22:17:39.250Z,2.60
2018-03-26T22:20:09.104Z,2.40
2018-03-26T22:22:37.412Z,2.40
2018-03-26T22:25:05.717Z,2.40
2018-03-26T22:27:34.040Z,2.30
2018-03-26T22:30:04.361Z,2.10
2018-03-26T22:32:33.438Z,1.90
2018-03-26T22:35:03.229Z,1.90
2018-03-26T22:37:31.933Z,1.70
2018-03-26T22:40:00.270Z,1.60
2018-03-26T22:42:28.586Z,1.50
2018-03-26T22:44:57.624Z,1.40
2018-03-26T22:47:26.700Z,1.30
2018-03-26T22:49:55.086Z,1.30
2018-03-26T22:52:24.520Z,1.20
2018-03-26T22:54:53.577Z,1.10
2018-03-26T22:57:21.878Z,1.10
2018-03-26T22:59:50.900Z,1.00
2018-03-26T23:02:19.227Z,0.90
2018-03-26T23:04:47.537Z,0.80
2018-03-26T23:07:16.181Z,0.70
2018-03-26T23:09:44.748Z,0.70
2018-03-26T23:12:13.805Z,0.60
2018-03-26T23:14:42.682Z,0.60
2018-03-26T23:17:12.074Z,0.50
2018-03-26T23:19:40.344Z,0.50
2018-03-26T23:22:08.644Z,0.40
2018-03-26T23:24:37.501Z,0.30
2018-03-26T23:27:06.565Z,0.30
2018-03-26T23:29:34.865Z,0.30
2018-03-26T23:32:04.314Z,0.30
2018-03-26T23:34:32.603Z,0.30
2018-03-26T23:37:02.435Z,0.30
2018-03-26T23:39:31.636Z,0.20
2018-03-26T23:41:59.923Z,0.20
2018-03-26T23:44:28.223Z,0.20
2018-03-26T23:46:57.642Z,0.30
2018-03-26T23:49:26.014Z,0.30
2018-03-26T23:51:54.320Z,0.40
2018-03-26T23:54:24.537Z,0.40
2018-03-26T23:56:52.838Z,0.40
2018-03-26T23:59:21.904Z,0.60
